Time;durP1;ratioP1;P1;durP2;ratioP2;P2;SDS_P1;SDS_P2;PMS_P1;PMS_P2;Temp;Humidity;BMP_temperature;BMP_pressure;BME280_temperature;BME280_humidity;BME280_pressure;Samples;Min_cycle;Max_cycle;Signal;HPM_P1;HPM_P2
2022/05/18 00:01:08;;;;;;;6.93;2.60;;;18.30;1.00;;;;;;5071541;28;20683;-57
2022/05/18 00:03:37;;;;;;;3.57;2.70;;;18.40;1.00;;;;;;5071556;28;20733;-60
2022/05/18 00:06:05;;;;;;;5.17;2.60;;;18.40;1.00;;;;;;5071473;28;20221;-60
2022/05/18 00:08:35;;;;;;;4.77;2.50;;;18.40;1.00;;;;;;5071622;28;20278;-60
2022/05/18 00:11:06;;;;;;;4.60;2.47;;;18.40;1.00;;;;;;5071649;28;20200;-60
2022/05/18 00:13:32;;;;;;;3.73;2.63;;;18.50;1.00;;;;;;5071366;28;20231;-60
2022/05/18 00:15:59;;;;;;;5.03;2.87;;;18.40;1.00;;;;;;5071335;28;20625;-60
2022/05/18 00:18:26;;;;;;;4.20;3.00;;;18.50;1.00;;;;;;5071753;28;20205;-60
2022/05/18 00:20:52;;;;;;;3.87;2.50;;;18.50;1.00;;;;;;5071287;28;20200;-60
2022/05/18 00:23:19;;;;;;;6.33;2.70;;;18.60;1.00;;;;;;5071685;28;20212;-59
2022/05/18 00:25:46;;;;;;;3.00;2.50;;;18.60;1.00;;;;;;5071352;28;20254;-60
2022/05/18 00:28:14;;;;;;;5.93;2.30;;;18.60;1.00;;;;;;5071120;28;20242;-60
2022/05/18 00:30:40;;;;;;;5.13;3.10;;;18.60;1.00;;;;;;5071473;28;20205;-60
2022/05/18 00:33:08;;;;;;;3.10;2.40;;;18.60;1.00;;;;;;5073508;28;20225;-60
2022/05/18 00:35:36;;;;;;;6.53;2.77;;;18.60;1.00;;;;;;5075404;28;20236;-60
2022/05/18 00:38:05;;;;;;;5.17;2.83;;;18.50;1.00;;;;;;5075164;28;20208;-60
2022/05/18 00:40:32;;;;;;;6.73;2.63;;;18.50;1.00;;;;;;5075151;28;20216;-59
2022/05/18 00:42:59;;;;;;;4.23;2.50;;;18.50;1.00;;;;;;5075005;28;20289;-59
2022/05/18 00:45:28;;;;;;;5.77;3.07;;;18.50;1.00;;;;;;5075234;28;20242;-60
2022/05/18 00:47:55;;;;;;;6.27;2.60;;;18.40;1.00;;;;;;5074485;28;20234;-59
2022/05/18 00:50:24;;;;;;;5.07;3.10;;;18.40;1.00;;;;;;5075210;28;20209;-60
2022/05/18 00:52:56;;;;;;;5.60;2.47;;;18.50;1.00;;;;;;5074283;28;20697;-60
2022/05/18 00:55:26;;;;;;;5.50;2.93;;;18.40;1.00;;;;;;5074863;28;20239;-60
2022/05/18 00:58:01;;;;;;;6.63;2.60;;;18.40;1.00;;;;;;5074860;28;20213;-61
2022/05/18 01:00:30;;;;;;;3.43;2.27;;;18.40;1.00;;;;;;5074945;28;20201;-60
2022/05/18 01:03:00;;;;;;;5.83;2.40;;;18.40;1.00;;;;;;5074895;28;20373;-60
2022/05/18 01:05:30;;;;;;;4.73;2.60;;;18.40;1.00;;;;;;5074634;28;20256;-60
2022/05/18 01:07:59;;;;;;;4.40;2.57;;;18.40;1.00;;;;;;5074711;28;20266;-60
2022/05/18 01:10:28;;;;;;;3.53;2.20;;;18.40;1.00;;;;;;5074850;28;20255;-60
2022/05/18 01:12:55;;;;;;;4.40;2.60;;;18.40;1.00;;;;;;5074528;28;20739;-60
2022/05/18 01:15:23;;;;;;;3.57;2.47;;;18.40;1.00;;;;;;5074436;28;20228;-60
2022/05/18 01:17:56;;;;;;;5.83;2.87;;;18.30;1.00;;;;;;5074197;28;20254;-61
2022/05/18 01:20:26;;;;;;;5.03;2.60;;;18.30;1.00;;;;;;5074775;28;20266;-60
2022/05/18 01:23:29;;;;;;;3.83;2.43;;;18.30;1.00;;;;;;5074424;28;20648;-61
2022/05/18 01:26:07;;;;;;;4.37;2.70;;;18.20;1.00;;;;;;5073998;28;20593;-60
2022/05/18 01:28:39;;;;;;;5.17;2.60;;;18.20;1.00;;;;;;5074145;28;20209;-60
2022/05/18 01:31:05;;;;;;;5.30;2.53;;;18.30;1.00;;;;;;5074689;28;20212;-60
2022/05/18 01:33:33;;;;;;;3.40;2.20;;;18.30;1.00;;;;;;5074359;28;20204;-60
2022/05/18 01:36:00;;;;;;;3.40;2.10;;;18.30;1.00;;;;;;5074076;28;20251;-60
2022/05/18 01:38:27;;;;;;;3.77;2.13;;;18.30;1.00;;;;;;5074307;28;20231;-60
2022/05/18 01:41:02;;;;;;;5.77;2.50;;;18.30;1.00;;;;;;5074032;28;20205;-61
2022/05/18 01:43:32;;;;;;;6.80;2.50;;;18.30;1.00;;;;;;5073936;28;20675;-58
2022/05/18 01:46:02;;;;;;;4.53;2.30;;;18.30;1.00;;;;;;5073751;28;20326;-60
2022/05/18 01:48:31;;;;;;;3.13;2.30;;;18.20;1.00;;;;;;5074252;28;20262;-59
2022/05/18 01:51:00;;;;;;;7.60;2.23;;;18.20;1.00;;;;;;5073894;28;20205;-60
2022/05/18 01:53:26;;;;;;;6.77;2.70;;;18.20;1.00;;;;;;5073828;28;20300;-60
2022/05/18 01:55:53;;;;;;;5.87;2.37;;;18.20;1.00;;;;;;5073942;28;20221;-63
2022/05/18 01:58:21;;;;;;;4.23;2.60;;;18.10;1.00;;;;;;5073844;28;20205;-60
2022/05/18 02:00:48;;;;;;;3.10;2.40;;;18.10;1.00;;;;;;5073873;28;20208;-60
2022/05/18 02:03:17;;;;;;;4.87;2.47;;;18.10;1.00;;;;;;5073611;28;20308;-60
2022/05/18 02:05:44;;;;;;;3.27;2.47;;;18.10;1.00;;;;;;5073925;28;20334;-58
2022/05/18 02:08:12;;;;;;;8.43;2.53;;;18.00;1.00;;;;;;5073148;28;20205;-60
2022/05/18 02:10:40;;;;;;;4.23;2.20;;;18.00;1.00;;;;;;5073752;28;20201;-60
2022/05/18 02:13:07;;;;;;;3.67;2.60;;;18.00;1.00;;;;;;5073470;28;20710;-60
2022/05/18 02:15:34;;;;;;;5.80;2.70;;;18.00;1.00;;;;;;5073577;28;20225;-60
2022/05/18 02:18:02;;;;;;;2.83;2.20;;;18.00;1.00;;;;;;5073156;28;20226;-60
2022/05/18 02:20:30;;;;;;;4.63;2.27;;;18.00;1.00;;;;;;5073302;28;20270;-61
2022/05/18 02:22:57;;;;;;;3.27;2.60;;;18.00;1.00;;;;;;5073305;28;20279;-60
2022/05/18 02:25:24;;;;;;;3.20;2.57;;;18.10;1.00;;;;;;5073529;28;20208;-60
2022/05/18 02:27:51;;;;;;;6.27;2.80;;;18.00;1.00;;;;;;5073081;28;20205;-60
2022/05/18 02:30:18;;;;;;;6.07;2.60;;;18.00;1.00;;;;;;5073201;28;20240;-60
2022/05/18 02:32:45;;;;;;;5.10;2.50;;;18.00;1.00;;;;;;5073140;28;20251;-60
2022/05/18 02:35:12;;;;;;;4.33;2.27;;;18.00;1.00;;;;;;5072861;28;20569;-61
2022/05/18 02:37:40;;;;;;;3.20;2.37;;;18.00;1.00;;;;;;5072820;28;20209;-60
2022/05/18 02:40:08;;;;;;;5.97;2.43;;;18.00;1.00;;;;;;5073075;28;20675;-60
2022/05/18 02:42:35;;;;;;;5.67;2.13;;;18.00;1.00;;;;;;5072744;28;20225;-60
2022/05/18 02:45:02;;;;;;;4.13;2.00;;;18.10;1.00;;;;;;5072933;28;20212;-60
2022/05/18 02:47:29;;;;;;;6.73;2.67;;;18.10;1.00;;;;;;5072353;28;20212;-59
2022/05/18 02:49:56;;;;;;;5.10;2.70;;;18.10;1.00;;;;;;5073106;28;20354;-59
2022/05/18 02:52:22;;;;;;;4.70;2.40;;;18.10;1.00;;;;;;5072861;28;20224;-60
2022/05/18 02:57:34;;;;;;;3.37;2.10;;;18.10;1.00;;;;;;5071968;28;20208;-61
2022/05/18 03:00:01;;;;;;;4.30;2.43;;;18.10;1.00;;;;;;5072454;28;20565;-60
2022/05/18 03:02:28;;;;;;;4.07;2.13;;;18.20;1.00;;;;;;5072533;28;20229;-60
2022/05/18 03:04:55;;;;;;;6.23;2.50;;;18.10;1.00;;;;;;5072593;28;20201;-60
2022/05/18 03:07:22;;;;;;;4.00;2.67;;;18.10;1.00;;;;;;5072385;28;20209;-60
2022/05/18 03:09:50;;;;;;;4.23;2.53;;;18.20;1.00;;;;;;5072388;28;20208;-60
2022/05/18 03:12:17;;;;;;;8.30;2.50;;;18.20;1.00;;;;;;5072527;28;20304;-60
2022/05/18 03:14:44;;;;;;;4.30;2.30;;;18.20;1.00;;;;;;5072313;28;20221;-59
2022/05/18 03:17:12;;;;;;;4.00;2.30;;;18.20;1.00;;;;;;5071743;28;20212;-60
2022/05/18 03:19:39;;;;;;;3.73;2.50;;;18.20;1.00;;;;;;5072470;28;20212;-60
2022/05/18 03:24:51;;;;;;;4.37;2.80;;;18.20;1.00;;;;;;5072434;28;20718;-60
2022/05/18 03:27:18;;;;;;;4.27;2.43;;;18.20;1.00;;;;;;5071546;28;20298;-60
2022/05/18 03:29:44;;;;;;;3.60;2.50;;;18.20;1.00;;;;;;5072235;28;20209;-60
2022/05/18 03:32:12;;;;;;;3.93;2.50;;;18.20;1.00;;;;;;5072120;28;20225;-60
2022/05/18 03:34:39;;;;;;;3.80;2.47;;;18.10;1.00;;;;;;5071890;28;20263;-60
2022/05/18 03:37:05;;;;;;;4.20;2.77;;;18.10;1.00;;;;;;5071739;28;20642;-60
2022/05/18 03:39:32;;;;;;;3.63;2.23;;;18.10;1.00;;;;;;5072008;28;20282;-59
2022/05/18 03:42:00;;;;;;;3.27;2.30;;;18.10;1.00;;;;;;5071895;28;20638;-60
2022/05/18 03:44:27;;;;;;;4.57;2.53;;;18.10;1.00;;;;;;5071990;28;20308;-60
2022/05/18 03:46:53;;;;;;;4.17;2.60;;;18.10;1.00;;;;;;5071893;28;20255;-60
2022/05/18 03:49:20;;;;;;;6.10;2.50;;;18.10;1.00;;;;;;5071916;28;20201;-60
2022/05/18 03:51:48;;;;;;;3.53;2.40;;;18.10;1.00;;;;;;5072066;28;20430;-60
2022/05/18 03:54:14;;;;;;;4.90;2.67;;;18.20;1.00;;;;;;5071821;28;20200;-60
2022/05/18 03:56:41;;;;;;;3.13;2.60;;;18.20;1.00;;;;;;5071476;28;20278;-60
2022/05/18 03:59:09;;;;;;;3.30;2.50;;;18.10;1.00;;;;;;5072063;28;20212;-60
2022/05/18 04:01:36;;;;;;;5.40;2.90;;;18.10;1.00;;;;;;5071701;28;20274;-60
2022/05/18 04:04:03;;;;;;;6.00;2.93;;;18.10;1.00;;;;;;5071861;28;20208;-60
2022/05/18 04:06:30;;;;;;;3.80;2.60;;;18.10;1.00;;;;;;5071172;28;20201;-60
2022/05/18 04:08:56;;;;;;;4.33;3.03;;;18.10;1.00;;;;;;5071637;28;20258;-60
2022/05/18 04:11:23;;;;;;;4.17;2.53;;;18.10;1.00;;;;;;5071696;28;20286;-60
2022/05/18 04:13:50;;;;;;;5.10;2.87;;;18.10;1.00;;;;;;5071711;28;20204;-60
2022/05/18 04:16:18;;;;;;;4.63;2.73;;;18.10;1.00;;;;;;5071244;28;20260;-60
2022/05/18 04:18:45;;;;;;;4.47;2.47;;;18.10;1.00;;;;;;5071421;28;20209;-60
2022/05/18 04:21:12;;;;;;;5.20;2.67;;;18.10;1.00;;;;;;5071370;28;20208;-60
2022/05/18 04:23:40;;;;;;;7.27;2.30;;;18.20;1.00;;;;;;5071342;28;20899;-60
2022/05/18 04:26:07;;;;;;;6.53;2.90;;;18.20;1.00;;;;;;5071511;28;20238;-60
2022/05/18 04:28:33;;;;;;;3.90;2.70;;;18.30;1.00;;;;;;5071678;28;20205;-60
2022/05/18 04:31:01;;;;;;;4.57;2.73;;;18.30;1.00;;;;;;5071427;28;20209;-60
2022/05/18 04:33:29;;;;;;;3.13;2.30;;;18.30;1.00;;;;;;5071535;28;20211;-60
2022/05/18 04:35:55;;;;;;;3.00;2.60;;;18.30;1.00;;;;;;5070871;28;20330;-59
2022/05/18 04:38:23;;;;;;;5.20;2.43;;;18.30;1.00;;;;;;5069883;28;20212;-59
2022/05/18 04:40:50;;;;;;;3.20;2.43;;;18.30;1.00;;;;;;5070719;28;20208;-60
2022/05/18 04:43:18;;;;;;;5.10;2.40;;;18.30;1.00;;;;;;5071189;28;20796;-60
2022/05/18 04:45:45;;;;;;;4.07;2.40;;;18.40;1.00;;;;;;5071203;28;20255;-60
2022/05/18 04:48:15;;;;;;;2.93;2.60;;;18.40;1.00;;;;;;5070802;28;20209;-60
2022/05/18 04:50:43;;;;;;;4.20;2.57;;;18.40;1.00;;;;;;5071161;28;20274;-60
2022/05/18 04:53:10;;;;;;;6.27;2.80;;;18.40;1.00;;;;;;5071652;28;20275;-60
2022/05/18 04:55:37;;;;;;;3.80;2.50;;;18.50;1.00;;;;;;5071532;28;20228;-61
2022/05/18 04:58:05;;;;;;;3.87;2.60;;;18.60;1.00;;;;;;5070440;28;20205;-60
2022/05/18 05:00:32;;;;;;;3.80;2.57;;;18.60;1.00;;;;;;5070971;28;20201;-60
2022/05/18 05:03:00;;;;;;;5.03;2.60;;;18.60;1.00;;;;;;5071258;28;20229;-60
2022/05/18 05:05:27;;;;;;;4.97;2.37;;;18.60;1.00;;;;;;5071429;28;20220;-60
2022/05/18 05:07:55;;;;;;;2.90;2.27;;;18.70;1.00;;;;;;5071027;28;20247;-60
2022/05/18 05:10:22;;;;;;;3.53;2.37;;;18.70;1.00;;;;;;5070820;28;20667;-61
2022/05/18 05:12:49;;;;;;;2.30;2.10;;;18.80;1.00;;;;;;5071108;28;20294;-60
2022/05/18 05:15:16;;;;;;;7.20;2.63;;;18.80;1.00;;;;;;5070615;28;20241;-61
2022/05/18 05:17:43;;;;;;;6.03;2.67;;;18.80;1.00;;;;;;5070384;28;20729;-62
2022/05/18 05:20:11;;;;;;;5.30;2.93;;;18.90;1.00;;;;;;5074335;28;20270;-62
2022/05/18 05:22:38;;;;;;;5.83;2.70;;;18.90;1.00;;;;;;5073999;28;20304;-63
2022/05/18 05:25:07;;;;;;;4.93;2.57;;;18.90;1.00;;;;;;5062620;28;20271;-62
2022/05/18 05:27:34;;;;;;;5.97;2.43;;;19.00;1.00;;;;;;5072907;28;20213;-62
2022/05/18 05:30:01;;;;;;;7.33;3.47;;;19.10;1.00;;;;;;5073938;28;20205;-62
2022/05/18 05:32:28;;;;;;;3.57;2.50;;;19.10;1.00;;;;;;5073892;28;20240;-63
2022/05/18 05:34:54;;;;;;;3.30;2.90;;;19.20;1.00;;;;;;5073629;28;20278;-62
2022/05/18 05:37:21;;;;;;;4.10;2.70;;;19.20;1.00;;;;;;5073347;28;20767;-63
2022/05/18 05:39:48;;;;;;;3.93;2.50;;;19.20;1.00;;;;;;5073218;28;20276;-62
2022/05/18 05:42:16;;;;;;;7.70;2.30;;;19.30;1.00;;;;;;5073591;28;20267;-62
2022/05/18 05:44:43;;;;;;;4.17;2.60;;;19.30;1.00;;;;;;5073225;28;20256;-63
2022/05/18 05:47:11;;;;;;;6.67;2.43;;;19.30;1.00;;;;;;5072725;28;20208;-62
2022/05/18 05:49:39;;;;;;;2.63;2.17;;;19.40;1.00;;;;;;5073599;28;20216;-62
2022/05/18 05:52:08;;;;;;;6.53;2.40;;;19.50;1.00;;;;;;5072760;28;20217;-61
2022/05/18 05:54:34;;;;;;;6.53;2.50;;;19.50;1.00;;;;;;5073437;28;20770;-63
2022/05/18 05:57:03;;;;;;;4.70;2.53;;;19.60;1.00;;;;;;5072488;28;20274;-63
2022/05/18 05:59:32;;;;;;;3.20;2.40;;;19.60;1.00;;;;;;5073049;28;20213;-63
2022/05/18 06:02:00;;;;;;;7.20;4.07;;;19.70;1.00;;;;;;5073145;28;20308;-63
2022/05/18 06:04:30;;;;;;;7.87;3.37;;;19.80;1.00;;;;;;5072569;28;20208;-63
2022/05/18 06:06:57;;;;;;;5.80;2.70;;;19.90;1.00;;;;;;5072423;28;20205;-63
2022/05/18 06:09:24;;;;;;;7.33;2.43;;;20.00;1.00;;;;;;5072756;28;20205;-66
2022/05/18 06:11:50;;;;;;;2.90;2.03;;;20.00;1.00;;;;;;5072797;28;20229;-64
2022/05/18 06:14:18;;;;;;;3.77;2.47;;;20.10;1.00;;;;;;5073301;28;20217;-65
2022/05/18 06:16:47;;;;;;;5.53;2.20;;;20.20;1.00;;;;;;5072130;28;20228;-64
2022/05/18 06:19:14;;;;;;;5.57;2.23;;;20.40;1.00;;;;;;5072745;28;20207;-64
2022/05/18 06:21:41;;;;;;;4.23;2.20;;;20.50;1.00;;;;;;5072725;28;20275;-64
2022/05/18 06:24:09;;;;;;;2.87;2.17;;;20.50;1.00;;;;;;5072846;28;20296;-65
2022/05/18 06:26:36;;;;;;;5.50;2.53;;;20.70;1.00;;;;;;5072204;28;20208;-64
2022/05/18 06:29:03;;;;;;;4.10;2.27;;;20.80;1.00;;;;;;5072387;28;20254;-64
2022/05/18 06:31:30;;;;;;;3.80;2.20;;;20.80;1.00;;;;;;5071622;28;20779;-65
2022/05/18 06:33:58;;;;;;;6.50;2.77;;;20.90;1.00;;;;;;5072726;28;20288;-63
2022/05/18 06:36:24;;;;;;;5.63;2.10;;;21.00;1.00;;;;;;5071887;28;20703;-63
2022/05/18 06:38:51;;;;;;;4.93;2.30;;;21.10;1.00;;;;;;5072326;28;20209;-64
2022/05/18 06:41:24;;;;;;;2.97;1.63;;;21.20;1.00;;;;;;5072290;28;20232;-65
2022/05/18 06:43:52;;;;;;;3.67;2.20;;;21.20;1.00;;;;;;5072540;28;20730;-66
2022/05/18 06:46:19;;;;;;;5.10;2.07;;;21.30;1.00;;;;;;5071286;28;20223;-64
2022/05/18 06:48:46;;;;;;;3.23;2.10;;;21.40;1.00;;;;;;5072227;28;20201;-63
2022/05/18 06:51:17;;;;;;;2.97;2.03;;;21.50;1.00;;;;;;5071605;28;20211;-63
2022/05/18 06:53:44;;;;;;;2.47;1.90;;;21.60;1.00;;;;;;5072035;28;20635;-64
2022/05/18 06:56:11;;;;;;;3.90;2.30;;;21.70;1.00;;;;;;5071287;28;20768;-64
2022/05/18 06:58:37;;;;;;;2.80;2.10;;;21.80;1.00;;;;;;5071845;28;20205;-63
2022/05/18 07:01:07;;;;;;;3.13;2.07;;;22.00;1.00;;;;;;5071368;28;20699;-66
2022/05/18 07:03:34;;;;;;;6.37;2.07;;;22.20;1.00;;;;;;5071541;28;20209;-64
2022/05/18 07:06:00;;;;;;;3.33;2.20;;;22.20;1.00;;;;;;5071035;28;20208;-64
2022/05/18 07:08:29;;;;;;;5.73;2.20;;;22.40;1.00;;;;;;5071994;28;20690;-63
2022/05/18 07:10:55;;;;;;;5.40;2.23;;;22.50;1.00;;;;;;5071310;28;20228;-64
2022/05/18 07:13:22;;;;;;;3.67;2.27;;;22.50;1.00;;;;;;5071690;28;20262;-66
2022/05/18 07:15:49;;;;;;;2.63;1.90;;;22.50;1.00;;;;;;5070695;28;20277;-64
2022/05/18 07:18:16;;;;;;;2.90;2.03;;;22.60;1.00;;;;;;5071217;28;20209;-65
2022/05/18 07:20:43;;;;;;;3.20;1.97;;;22.70;1.00;;;;;;5071527;28;20212;-66
2022/05/18 07:23:10;;;;;;;3.40;2.00;;;22.70;1.00;;;;;;5071119;28;20250;-65
2022/05/18 07:25:38;;;;;;;3.10;2.07;;;22.80;1.00;;;;;;5071418;28;20274;-63
2022/05/18 07:28:06;;;;;;;2.07;1.57;;;22.80;1.00;;;;;;5070917;28;20669;-64
2022/05/18 07:30:32;;;;;;;4.90;2.10;;;23.00;1.00;;;;;;5071570;28;20721;-64
2022/05/18 07:32:59;;;;;;;4.40;2.03;;;23.10;1.00;;;;;;5071045;28;20259;-63
2022/05/18 07:35:28;;;;;;;2.57;2.00;;;23.20;1.00;;;;;;5071148;28;20205;-63
2022/05/18 07:37:55;;;;;;;6.03;1.90;;;23.30;1.00;;;;;;5071305;28;20228;-65
2022/05/18 07:40:22;;;;;;;2.90;1.80;;;23.40;1.00;;;;;;5070988;28;20205;-65
2022/05/18 07:42:54;;;;;;;4.17;2.00;;;23.50;1.00;;;;;;5070990;28;20290;-65
2022/05/18 07:45:21;;;;;;;2.97;1.60;;;23.70;1.00;;;;;;5070824;28;20226;-67
2022/05/18 07:47:48;;;;;;;2.67;2.00;;;23.90;1.00;;;;;;5070908;28;20872;-64
2022/05/18 07:50:16;;;;;;;2.50;1.90;;;24.00;1.00;;;;;;5071122;28;20205;-64
2022/05/18 07:52:44;;;;;;;2.43;2.07;;;24.00;1.00;;;;;;5070963;28;20243;-64
2022/05/18 07:55:11;;;;;;;2.80;1.83;;;24.00;1.00;;;;;;5071194;28;20236;-63
2022/05/18 07:57:37;;;;;;;3.10;1.80;;;24.20;1.00;;;;;;5071086;28;20232;-63
2022/05/18 08:00:08;;;;;;;5.70;2.23;;;24.20;1.00;;;;;;5072304;28;20212;-64
2022/05/18 08:02:35;;;;;;;7.17;2.10;;;24.40;1.00;;;;;;5072282;28;20235;-63
2022/05/18 08:05:01;;;;;;;3.23;1.87;;;24.50;1.00;;;;;;5071647;28;20671;-63
2022/05/18 08:07:28;;;;;;;2.10;1.90;;;24.80;1.00;;;;;;5071103;28;20212;-63
2022/05/18 08:15:25;;;;;;;6.03;2.00;;;24.90;99.90;;;;;;5070663;28;20235;-65
2022/05/18 08:17:52;;;;;;;3.80;1.80;;;25.10;1.00;;;;;;5070405;28;20224;-64
2022/05/18 08:20:21;;;;;;;4.73;1.80;;;25.00;99.90;;;;;;5070823;28;20262;-65
2022/05/18 08:22:47;;;;;;;3.53;1.73;;;25.20;99.90;;;;;;5070495;28;20224;-65
2022/05/18 08:25:15;;;;;;;2.67;1.57;;;25.30;99.90;;;;;;5070541;28;20306;-62
2022/05/18 08:27:43;;;;;;;3.87;1.50;;;25.50;1.00;;;;;;5070359;28;20260;-65
2022/05/18 08:30:13;;;;;;;2.40;1.60;;;25.50;99.90;;;;;;5071109;28;20201;-64
2022/05/18 08:32:41;;;;;;;3.73;1.87;;;25.70;99.90;;;;;;5070827;28;20670;-64
2022/05/18 08:35:10;;;;;;;3.23;1.53;;;25.80;99.90;;;;;;5070460;28;20205;-64
2022/05/18 08:37:41;;;;;;;4.73;1.63;;;25.90;99.90;;;;;;5070440;28;20589;-64
2022/05/18 08:40:12;;;;;;;2.60;1.43;;;26.00;99.90;;;;;;5070429;28;20270;-63
2022/05/18 08:42:39;;;;;;;2.20;1.50;;;26.10;99.90;;;;;;5070871;28;20232;-64
2022/05/18 08:45:07;;;;;;;2.40;1.63;;;26.10;99.90;;;;;;5070685;28;20896;-64
2022/05/18 08:47:43;;;;;;;3.87;1.80;;;26.10;99.90;;;;;;5070194;28;20291;-64
2022/05/18 08:50:13;;;;;;;3.47;1.70;;;26.30;99.90;;;;;;5070397;28;20212;-65
2022/05/18 08:53:16;;;;;;;2.80;2.20;;;26.40;99.90;;;;;;5070235;28;20228;-63
2022/05/18 08:55:54;;;;;;;4.07;1.60;;;26.50;99.90;;;;;;5042288;28;20204;-64
2022/05/18 08:58:31;;;;;;;2.80;1.50;;;26.50;99.90;;;;;;5074031;28;20647;-64
2022/05/18 09:01:01;;;;;;;5.33;1.67;;;26.50;99.90;;;;;;5074536;28;20683;-63
2022/05/18 09:03:35;;;;;;;2.27;1.73;;;26.50;99.90;;;;;;5074232;28;20201;-64
2022/05/18 09:06:05;;;;;;;3.33;1.73;;;26.60;99.90;;;;;;5073652;28;20216;-64
2022/05/18 09:08:35;;;;;;;4.47;1.73;;;26.70;99.90;;;;;;5074443;28;20220;-63
2022/05/18 09:11:06;;;;;;;3.30;1.90;;;26.60;99.90;;;;;;5073693;28;20274;-64
2022/05/18 09:13:33;;;;;;;3.50;1.80;;;26.50;99.90;;;;;;5074762;28;20213;-64
2022/05/18 09:16:09;;;;;;;6.07;2.07;;;26.50;99.90;;;;;;5073511;28;20240;-65
2022/05/18 09:18:43;;;;;;;7.33;2.00;;;26.60;99.90;;;;;;5074251;28;20204;-63
2022/05/18 09:21:19;;;;;;;2.03;1.47;;;26.70;99.90;;;;;;5074388;28;20230;-63
2022/05/18 09:23:58;;;;;;;2.67;1.73;;;26.70;99.90;;;;;;5073794;28;20208;-65
2022/05/18 09:26:50;;;;;;;6.00;1.87;;;26.80;99.90;;;;;;5074070;28;20303;-65
2022/05/18 09:29:26;;;;;;;2.77;1.80;;;26.80;99.90;;;;;;5067212;28;20623;-65
2022/05/18 09:32:17;;;;;;;3.63;1.70;;;26.70;99.90;;;;;;5073445;28;20688;-65
2022/05/18 09:34:58;;;;;;;2.50;1.77;;;26.80;99.90;;;;;;5073908;28;20235;-65
2022/05/18 09:37:32;;;;;;;5.10;1.80;;;26.80;99.90;;;;;;5073295;28;20224;-64
2022/05/18 09:40:06;;;;;;;2.73;1.87;;;26.70;99.90;;;;;;5073220;28;20679;-64
2022/05/18 09:42:37;;;;;;;4.73;2.30;;;26.80;99.90;;;;;;5073591;28;20229;-63
2022/05/18 09:45:08;;;;;;;3.47;1.70;;;26.90;99.90;;;;;;5073553;28;20672;-63
2022/05/18 09:47:43;;;;;;;3.90;1.73;;;26.90;99.90;;;;;;5073199;28;20231;-63
2022/05/18 09:50:11;;;;;;;2.93;1.63;;;27.00;99.90;;;;;;5073845;28;20258;-63
2022/05/18 09:52:39;;;;;;;3.83;2.70;;;27.10;99.90;;;;;;5072795;28;20235;-64
2022/05/18 09:55:09;;;;;;;4.23;2.60;;;27.10;99.90;;;;;;5072959;28;20919;-63
2022/05/18 09:57:40;;;;;;;3.30;2.17;;;27.20;99.90;;;;;;5073014;28;20651;-64
2022/05/18 10:00:13;;;;;;;7.70;3.70;;;27.30;99.90;;;;;;5073262;28;20672;-67
2022/05/18 10:08:16;;;;;;;5.37;2.53;;;27.40;99.90;;;;;;5072920;28;20294;-64
2022/05/18 10:10:44;;;;;;;7.93;2.87;;;27.50;99.90;;;;;;5073000;28;20205;-66
2022/05/18 10:13:13;;;;;;;2.23;2.00;;;27.50;99.90;;;;;;5073238;28;20231;-66
2022/05/18 10:15:43;;;;;;;3.20;2.13;;;27.50;99.90;;;;;;5072427;28;20261;-62
2022/05/18 10:18:17;;;;;;;3.83;2.17;;;27.30;99.90;;;;;;5072429;28;20323;-62
2022/05/18 10:21:10;;;;;;;2.53;1.80;;;27.30;99.90;;;;;;5073264;28;20295;-63
2022/05/18 10:23:45;;;;;;;3.60;2.20;;;27.30;99.90;;;;;;5072566;28;20618;-63
2022/05/18 10:26:24;;;;;;;3.97;1.83;;;27.40;99.90;;;;;;5071999;28;20216;-63
2022/05/18 10:28:56;;;;;;;2.30;2.00;;;27.70;99.90;;;;;;5072700;28;20200;-63
2022/05/18 10:31:29;;;;;;;3.03;1.90;;;27.70;99.90;;;;;;5072929;28;20224;-62
2022/05/18 10:34:14;;;;;;;2.80;1.70;;;27.70;99.90;;;;;;5072817;28;20197;-64
2022/05/18 10:36:46;;;;;;;2.17;1.87;;;27.90;99.90;;;;;;5072095;28;20655;-65
2022/05/18 10:39:12;;;;;;;5.17;2.13;;;27.80;99.90;;;;;;5072458;28;20212;-65
2022/05/18 10:41:42;;;;;;;4.53;1.70;;;28.00;99.90;;;;;;5072362;28;20229;-65
2022/05/18 10:44:16;;;;;;;4.57;2.00;;;28.10;99.90;;;;;;5072594;28;20219;-64
2022/05/18 10:46:44;;;;;;;3.37;2.10;;;28.00;99.90;;;;;;5071479;28;20205;-62
2022/05/18 10:49:23;;;;;;;3.93;1.80;;;28.20;99.90;;;;;;5072489;28;20560;-63
2022/05/18 10:51:51;;;;;;;2.70;1.83;;;28.20;99.90;;;;;;5072366;28;20220;-63
2022/05/18 10:54:23;;;;;;;4.33;1.77;;;28.20;99.90;;;;;;5072106;28;20201;-63
2022/05/18 10:56:51;;;;;;;3.33;1.70;;;28.30;99.90;;;;;;5071510;28;20208;-63
2022/05/18 10:59:27;;;;;;;5.57;2.30;;;28.30;99.90;;;;;;5071885;28;20566;-63
2022/05/18 11:02:03;;;;;;;3.40;2.00;;;28.10;99.90;;;;;;5072415;28;20224;-64
2022/05/18 11:04:38;;;;;;;5.27;1.90;;;28.10;99.90;;;;;;5071811;28;20208;-63
2022/05/18 11:07:08;;;;;;;2.93;1.70;;;28.10;99.90;;;;;;5071584;28;20258;-66
2022/05/18 11:09:35;;;;;;;2.50;1.87;;;28.10;99.90;;;;;;5072393;28;20204;-65
2022/05/18 11:12:07;;;;;;;2.93;1.93;;;28.20;99.90;;;;;;5071824;28;20233;-66
2022/05/18 11:14:46;;;;;;;2.63;1.80;;;28.40;99.90;;;;;;5072175;28;20266;-63
2022/05/18 11:17:29;;;;;;;2.10;1.90;;;28.30;99.90;;;;;;5070419;28;20237;-64
2022/05/18 11:20:12;;;;;;;2.90;1.80;;;28.30;99.90;;;;;;5071360;28;20258;-64
2022/05/18 11:22:51;;;;;;;4.05;1.90;;;28.20;99.90;;;;;;5071624;28;20318;-64
2022/05/18 11:25:27;;;;;;;5.03;1.87;;;28.30;99.90;;;;;;5071320;28;20235;-65
2022/05/18 11:27:59;;;;;;;3.70;2.00;;;28.20;99.90;;;;;;5071448;28;20204;-64
2022/05/18 11:30:45;;;;;;;4.20;2.10;;;28.20;99.90;;;;;;5071315;28;20205;-63
2022/05/18 11:33:23;;;;;;;2.27;1.83;;;28.00;99.90;;;;;;5071792;28;20270;-63
2022/05/18 11:36:01;;;;;;;3.17;2.00;;;28.10;99.90;;;;;;5070925;28;20208;-64
2022/05/18 11:38:45;;;;;;;3.33;2.03;;;28.30;99.90;;;;;;5071640;28;20327;-67
2022/05/18 11:41:25;;;;;;;2.63;1.87;;;28.50;99.90;;;;;;5070989;28;20211;-62
2022/05/18 11:44:01;;;;;;;4.30;1.57;;;28.50;99.90;;;;;;5072158;28;20671;-64
2022/05/18 11:46:41;;;;;;;2.33;1.70;;;28.30;99.90;;;;;;5070772;28;20262;-60
2022/05/18 11:49:16;;;;;;;3.92;1.65;;;28.50;99.90;;;;;;5071514;28;20227;-63
2022/05/18 11:52:03;;;;;;;4.22;1.73;;;28.70;99.90;;;;;;5071402;28;20228;-63
2022/05/18 11:54:45;;;;;;;3.60;1.70;;;28.80;99.90;;;;;;5068721;28;20205;-63
2022/05/18 11:57:26;;;;;;;3.38;1.75;;;28.90;99.90;;;;;;5070984;28;20208;-63
2022/05/18 12:00:07;;;;;;;3.97;1.80;;;29.00;99.90;;;;;;5070963;28;20209;-64
2022/05/18 12:03:13;;;;;;;1.70;1.55;;;29.20;99.90;;;;;;5071244;28;20229;-63
2022/05/18 12:05:53;;;;;;;3.85;1.98;;;29.00;99.90;;;;;;5070726;28;20753;-64
2022/05/18 12:08:46;;;;;;;2.73;1.80;;;29.00;99.90;;;;;;5070927;28;20254;-63
2022/05/18 12:11:22;;;;;;;2.80;1.83;;;29.00;99.90;;;;;;5070995;28;20613;-61
2022/05/18 12:14:01;;;;;;;4.85;1.70;;;29.10;99.90;;;;;;5071414;28;20204;-62
2022/05/18 12:16:35;;;;;;;3.40;1.60;;;29.00;99.90;;;;;;5069793;28;20581;-62
2022/05/18 12:19:09;;;;;;;2.72;1.55;;;28.90;99.90;;;;;;5071089;28;20237;-65
2022/05/18 12:21:40;;;;;;;5.20;1.50;;;29.10;99.90;;;;;;5071293;28;20270;-63
2022/05/18 12:24:08;;;;;;;2.53;1.70;;;29.00;99.90;;;;;;5070676;28;20208;-62
2022/05/18 12:26:39;;;;;;;3.30;1.80;;;28.70;99.90;;;;;;5070299;28;20213;-62
2022/05/18 12:29:08;;;;;;;2.30;1.60;;;28.90;99.90;;;;;;5073045;28;20262;-63
2022/05/18 12:31:36;;;;;;;2.67;1.40;;;29.00;99.90;;;;;;5074938;28;20227;-63
2022/05/18 12:34:05;;;;;;;3.47;1.60;;;29.10;99.90;;;;;;5075065;28;20270;-63
2022/05/18 12:36:35;;;;;;;2.72;1.60;;;29.20;99.90;;;;;;5074171;28;20212;-63
2022/05/18 12:39:11;;;;;;;2.63;1.65;;;29.20;99.90;;;;;;5075302;28;20225;-64
2022/05/18 12:41:44;;;;;;;2.17;1.67;;;29.10;99.90;;;;;;5074538;28;20311;-63
2022/05/18 12:44:13;;;;;;;2.97;1.55;;;29.20;99.90;;;;;;5075262;28;20205;-64
2022/05/18 12:46:45;;;;;;;2.38;1.40;;;29.40;99.90;;;;;;5074334;28;20554;-63
2022/05/18 12:49:20;;;;;;;3.70;1.65;;;29.20;99.90;;;;;;5075955;28;20291;-63
2022/05/18 12:51:56;;;;;;;1.60;1.50;;;29.20;99.90;;;;;;5075108;28;20221;-64
2022/05/18 12:54:39;;;;;;;4.10;1.60;;;29.40;99.90;;;;;;5074531;28;20231;-64
2022/05/18 12:57:26;;;;;;;2.38;1.55;;;29.00;99.90;;;;;;5074268;28;20648;-67
2022/05/18 13:00:21;;;;;;;1.60;1.20;;;28.70;99.90;;;;;;5074508;28;20209;-66
2022/05/18 13:02:55;;;;;;;2.70;1.50;;;28.80;99.90;;;;;;5074598;28;20229;-67
2022/05/18 13:05:36;;;;;;;3.50;1.67;;;29.00;99.90;;;;;;5074175;28;20244;-66
2022/05/18 13:08:11;;;;;;;3.80;1.65;;;29.00;99.90;;;;;;5074096;28;20235;-63
2022/05/18 13:10:39;;;;;;;3.25;1.77;;;29.30;99.90;;;;;;5073854;28;20676;-63
2022/05/18 13:13:20;;;;;;;2.08;1.40;;;29.30;99.90;;;;;;5074770;28;20229;-63
2022/05/18 13:15:56;;;;;;;3.25;1.70;;;29.50;99.90;;;;;;5074175;28;20258;-63
2022/05/18 13:18:30;;;;;;;3.15;1.63;;;29.50;99.90;;;;;;5073520;28;20584;-64
2022/05/18 13:21:16;;;;;;;3.38;1.33;;;29.50;99.90;;;;;;5073534;28;20201;-64
2022/05/18 13:23:52;;;;;;;2.50;1.40;;;29.70;99.90;;;;;;5074045;28;20284;-64
2022/05/18 13:26:26;;;;;;;2.70;1.60;;;29.70;99.90;;;;;;5073473;28;20580;-64